sensor_id;sensor_type;location;lat;lon;timestamp;temperature;humidity
10788;DHT22;5446;50.826;4.380;2023-10-19T00:00:34;15.80;99.90
10788;DHT22;5446;50.826;4.380;2023-10-19T00:03:02;15.80;99.90
10788;DHT22;5446;50.826;4.380;2023-10-19T00:05:30;15.90;99.90
10788;DHT22;5446;50.826;4.380;2023-10-19T00:08:01;15.90;99.90
10788;DHT22;5446;50.826;4.380;2023-10-19T00:10:31;15.80;99.90
10788;DHT22;5446;50.826;4.380;2023-10-19T00:13:03;15.80;99.90
10788;DHT22;5446;50.826;4.380;2023-10-19T00:15:34;15.80;99.90
10788;DHT22;5446;50.826;4.380;2023-10-19T00:18:03;15.90;99.90
10788;DHT22;5446;50.826;4.380;2023-10-19T00:20:42;15.90;99.90
10788;DHT22;5446;50.826;4.380;2023-10-19T00:23:14;15.90;99.90
10788;DHT22;5446;50.826;4.380;2023-10-19T00:25:44;15.90;99.90
10788;DHT22;5446;50.826;4.380;2023-10-19T00:28:15;15.90;99.90
10788;DHT22;5446;50.826;4.380;2023-10-19T00:30:43;15.90;99.90
10788;DHT22;5446;50.826;4.380;2023-10-19T00:33:11;15.90;99.90
10788;DHT22;5446;50.826;4.380;2023-10-19T00:35:48;15.90;99.90
10788;DHT22;5446;50.826;4.380;2023-10-19T00:38:24;15.90;99.90
10788;DHT22;5446;50.826;4.380;2023-10-19T00:40:56;16.00;99.90
10788;DHT22;5446;50.826;4.380;2023-10-19T00:43:32;16.00;99.90
10788;DHT22;5446;50.826;4.380;2023-10-19T00:46:24;15.90;99.90
10788;DHT22;5446;50.826;4.380;2023-10-19T00:49:00;15.90;99.90
10788;DHT22;5446;50.826;4.380;2023-10-19T00:51:31;15.90;99.90
10788;DHT22;5446;50.826;4.380;2023-10-19T00:54:11;15.80;99.90
10788;DHT22;5446;50.826;4.380;2023-10-19T00:56:45;15.80;99.90
10788;DHT22;5446;50.826;4.380;2023-10-19T00:59:17;15.80;99.90
10788;DHT22;5446;50.826;4.380;2023-10-19T01:01:51;15.80;99.90
10788;DHT22;5446;50.826;4.380;2023-10-19T01:04:20;15.80;99.90
10788;DHT22;5446;50.826;4.380;2023-10-19T01:06:50;15.80;99.90
10788;DHT22;5446;50.826;4.380;2023-10-19T01:09:37;15.80;99.90
10788;DHT22;5446;50.826;4.380;2023-10-19T01:12:04;15.80;99.90
10788;DHT22;5446;50.826;4.380;2023-10-19T01:15:13;15.80;99.90
10788;DHT22;5446;50.826;4.380;2023-10-19T01:17:41;15.80;99.90
10788;DHT22;5446;50.826;4.380;2023-10-19T01:20:18;15.80;99.90
10788;DHT22;5446;50.826;4.380;2023-10-19T01:23:08;15.80;99.90
10788;DHT22;5446;50.826;4.380;2023-10-19T01:25:44;15.80;99.90
10788;DHT22;5446;50.826;4.380;2023-10-19T01:28:20;15.80;99.90
10788;DHT22;5446;50.826;4.380;2023-10-19T01:30:48;15.80;99.90
10788;DHT22;5446;50.826;4.380;2023-10-19T01:33:17;15.80;99.90
10788;DHT22;5446;50.826;4.380;2023-10-19T01:35:47;15.80;99.90
10788;DHT22;5446;50.826;4.380;2023-10-19T01:38:31;15.70;99.90
10788;DHT22;5446;50.826;4.380;2023-10-19T01:41:01;15.80;99.90
10788;DHT22;5446;50.826;4.380;2023-10-19T01:43:29;15.80;99.90
10788;DHT22;5446;50.826;4.380;2023-10-19T01:45:59;15.80;99.90
10788;DHT22;5446;50.826;4.380;2023-10-19T01:48:37;15.80;99.90
10788;DHT22;5446;50.826;4.380;2023-10-19T01:51:05;15.70;99.90
10788;DHT22;5446;50.826;4.380;2023-10-19T01:53:34;15.70;99.90
10788;DHT22;5446;50.826;4.380;2023-10-19T01:56:10;15.70;99.90
10788;DHT22;5446;50.826;4.380;2023-10-19T01:58:39;15.70;99.90
10788;DHT22;5446;50.826;4.380;2023-10-19T02:01:06;15.70;99.90
10788;DHT22;5446;50.826;4.380;2023-10-19T02:03:54;15.70;99.90
10788;DHT22;5446;50.826;4.380;2023-10-19T02:06:21;15.70;99.90
10788;DHT22;5446;50.826;4.380;2023-10-19T02:08:54;15.70;99.90
10788;DHT22;5446;50.826;4.380;2023-10-19T02:11:26;15.70;99.90
10788;DHT22;5446;50.826;4.380;2023-10-19T02:13:54;15.70;99.90
10788;DHT22;5446;50.826;4.380;2023-10-19T02:16:21;15.60;99.90
10788;DHT22;5446;50.826;4.380;2023-10-19T02:18:51;15.60;99.90
10788;DHT22;5446;50.826;4.380;2023-10-19T02:21:17;15.50;99.90
10788;DHT22;5446;50.826;4.380;2023-10-19T02:23:57;15.60;99.90
10788;DHT22;5446;50.826;4.380;2023-10-19T02:26:25;15.50;99.90
10788;DHT22;5446;50.826;4.380;2023-10-19T02:28:53;15.40;99.90
10788;DHT22;5446;50.826;4.380;2023-10-19T02:31:19;15.40;99.90
10788;DHT22;5446;50.826;4.380;2023-10-19T02:33:51;15.50;99.90
10788;DHT22;5446;50.826;4.380;2023-10-19T02:36:20;15.50;99.90
10788;DHT22;5446;50.826;4.380;2023-10-19T02:38:46;15.50;99.90
10788;DHT22;5446;50.826;4.380;2023-10-19T02:41:17;15.50;99.90
10788;DHT22;5446;50.826;4.380;2023-10-19T02:43:43;15.40;99.90
10788;DHT22;5446;50.826;4.380;2023-10-19T02:46:16;15.40;99.90
10788;DHT22;5446;50.826;4.380;2023-10-19T02:48:46;15.30;99.90
10788;DHT22;5446;50.826;4.380;2023-10-19T02:51:15;15.20;99.90
10788;DHT22;5446;50.826;4.380;2023-10-19T02:53:41;15.20;99.90
10788;DHT22;5446;50.826;4.380;2023-10-19T02:56:15;15.20;99.90
10788;DHT22;5446;50.826;4.380;2023-10-19T02:58:49;15.10;99.90
10788;DHT22;5446;50.826;4.380;2023-10-19T03:01:17;15.10;99.90
10788;DHT22;5446;50.826;4.380;2023-10-19T03:03:50;15.10;99.90
10788;DHT22;5446;50.826;4.380;2023-10-19T03:06:22;15.10;99.90
10788;DHT22;5446;50.826;4.380;2023-10-19T03:08:49;15.10;99.90
10788;DHT22;5446;50.826;4.380;2023-10-19T03:11:30;15.10;99.90
10788;DHT22;5446;50.826;4.380;2023-10-19T03:13:58;15.20;99.90
10788;DHT22;5446;50.826;4.380;2023-10-19T03:16:24;15.20;99.90
10788;DHT22;5446;50.826;4.380;2023-10-19T03:18:52;15.20;99.90
10788;DHT22;5446;50.826;4.380;2023-10-19T03:21:20;15.20;99.90
10788;DHT22;5446;50.826;4.380;2023-10-19T03:23:52;15.20;99.90
10788;DHT22;5446;50.826;4.380;2023-10-19T03:26:18;15.20;99.90
10788;DHT22;5446;50.826;4.380;2023-10-19T03:28:59;15.20;99.90
10788;DHT22;5446;50.826;4.380;2023-10-19T03:31:33;15.20;99.90
10788;DHT22;5446;50.826;4.380;2023-10-19T03:34:02;15.30;99.90
10788;DHT22;5446;50.826;4.380;2023-10-19T03:36:31;15.30;99.90
10788;DHT22;5446;50.826;4.380;2023-10-19T03:38:58;15.30;99.90
10788;DHT22;5446;50.826;4.380;2023-10-19T03:41:37;15.30;99.90
10788;DHT22;5446;50.826;4.380;2023-10-19T03:44:05;15.30;99.90
10788;DHT22;5446;50.826;4.380;2023-10-19T03:46:31;15.30;99.90
10788;DHT22;5446;50.826;4.380;2023-10-19T03:49:01;15.30;99.90
10788;DHT22;5446;50.826;4.380;2023-10-19T03:51:37;15.30;99.90
10788;DHT22;5446;50.826;4.380;2023-10-19T03:54:06;15.30;99.90
10788;DHT22;5446;50.826;4.380;2023-10-19T03:56:49;15.30;99.90
10788;DHT22;5446;50.826;4.380;2023-10-19T03:59:16;15.30;99.90
10788;DHT22;5446;50.826;4.380;2023-10-19T04:01:43;15.30;99.90
10788;DHT22;5446;50.826;4.380;2023-10-19T04:04:10;15.30;99.90
10788;DHT22;5446;50.826;4.380;2023-10-19T04:06:36;15.40;99.90
10788;DHT22;5446;50.826;4.380;2023-10-19T04:09:03;15.30;99.90
10788;DHT22;5446;50.826;4.380;2023-10-19T04:11:32;15.40;99.90
10788;DHT22;5446;50.826;4.380;2023-10-19T04:14:17;15.40;99.90
10788;DHT22;5446;50.826;4.380;2023-10-19T04:16:45;15.40;99.90
10788;DHT22;5446;50.826;4.380;2023-10-19T04:19:14;15.40;99.90
10788;DHT22;5446;50.826;4.380;2023-10-19T04:21:41;15.40;99.90
10788;DHT22;5446;50.826;4.380;2023-10-19T04:24:13;15.40;99.90
10788;DHT22;5446;50.826;4.380;2023-10-19T04:26:40;15.40;99.90
10788;DHT22;5446;50.826;4.380;2023-10-19T04:29:06;15.40;99.90
10788;DHT22;5446;50.826;4.380;2023-10-19T04:31:39;15.40;99.90
10788;DHT22;5446;50.826;4.380;2023-10-19T04:34:18;15.30;99.90
10788;DHT22;5446;50.826;4.380;2023-10-19T04:36:47;15.40;99.90
10788;DHT22;5446;50.826;4.380;2023-10-19T04:39:13;15.40;99.90
10788;DHT22;5446;50.826;4.380;2023-10-19T04:41:42;15.40;99.90
10788;DHT22;5446;50.826;4.380;2023-10-19T04:44:09;15.40;99.90
10788;DHT22;5446;50.826;4.380;2023-10-19T04:46:36;15.40;99.90
10788;DHT22;5446;50.826;4.380;2023-10-19T04:49:02;15.40;99.90
10788;DHT22;5446;50.826;4.380;2023-10-19T04:51:29;15.40;99.90
10788;DHT22;5446;50.826;4.380;2023-10-19T04:53:56;15.40;99.90
10788;DHT22;5446;50.826;4.380;2023-10-19T04:56:21;15.40;99.90
10788;DHT22;5446;50.826;4.380;2023-10-19T04:58:47;15.40;99.90
10788;DHT22;5446;50.826;4.380;2023-10-19T05:01:14;15.40;99.90
10788;DHT22;5446;50.826;4.380;2023-10-19T05:03:41;15.40;99.90
10788;DHT22;5446;50.826;4.380;2023-10-19T05:06:07;15.40;99.90
10788;DHT22;5446;50.826;4.380;2023-10-19T05:08:35;15.40;99.90
10788;DHT22;5446;50.826;4.380;2023-10-19T05:11:02;15.50;99.90
10788;DHT22;5446;50.826;4.380;2023-10-19T05:13:31;15.40;99.90
10788;DHT22;5446;50.826;4.380;2023-10-19T05:15:58;15.50;99.90
10788;DHT22;5446;50.826;4.380;2023-10-19T05:18:27;15.40;99.90
10788;DHT22;5446;50.826;4.380;2023-10-19T05:20:53;15.50;99.90
10788;DHT22;5446;50.826;4.380;2023-10-19T05:23:26;15.40;99.90
10788;DHT22;5446;50.826;4.380;2023-10-19T05:25:59;15.40;99.90
10788;DHT22;5446;50.826;4.380;2023-10-19T05:28:25;15.50;99.90
10788;DHT22;5446;50.826;4.380;2023-10-19T05:30:51;15.50;99.90
10788;DHT22;5446;50.826;4.380;2023-10-19T05:33:17;15.50;99.90
10788;DHT22;5446;50.826;4.380;2023-10-19T05:35:50;15.50;99.90
10788;DHT22;5446;50.826;4.380;2023-10-19T05:38:17;15.50;99.90
10788;DHT22;5446;50.826;4.380;2023-10-19T05:40:44;15.50;99.90
10788;DHT22;5446;50.826;4.380;2023-10-19T05:43:11;15.50;99.90
10788;DHT22;5446;50.826;4.380;2023-10-19T05:45:37;15.50;99.90
10788;DHT22;5446;50.826;4.380;2023-10-19T05:48:04;15.50;99.90
10788;DHT22;5446;50.826;4.380;2023-10-19T05:50:33;15.50;99.90
10788;DHT22;5446;50.826;4.380;2023-10-19T05:52:58;15.50;99.90
10788;DHT22;5446;50.826;4.380;2023-10-19T05:55:25;15.50;99.90
10788;DHT22;5446;50.826;4.380;2023-10-19T05:57:51;15.50;99.90
10788;DHT22;5446;50.826;4.380;2023-10-19T06:00:17;15.50;99.90
10788;DHT22;5446;50.826;4.380;2023-10-19T06:02:44;15.50;99.90
10788;DHT22;5446;50.826;4.380;2023-10-19T06:05:11;15.50;99.90
10788;DHT22;5446;50.826;4.380;2023-10-19T06:07:37;15.50;99.90
10788;DHT22;5446;50.826;4.380;2023-10-19T06:10:03;15.50;99.90
10788;DHT22;5446;50.826;4.380;2023-10-19T06:12:33;15.50;99.90
10788;DHT22;5446;50.826;4.380;2023-10-19T06:15:00;15.50;99.90
10788;DHT22;5446;50.826;4.380;2023-10-19T06:17:26;15.40;99.90
10788;DHT22;5446;50.826;4.380;2023-10-19T06:19:54;15.40;99.90
10788;DHT22;5446;50.826;4.380;2023-10-19T06:22:20;15.40;99.90
10788;DHT22;5446;50.826;4.380;2023-10-19T06:24:45;15.40;99.90
10788;DHT22;5446;50.826;4.380;2023-10-19T06:27:11;15.40;99.90
10788;DHT22;5446;50.826;4.380;2023-10-19T06:29:37;15.40;99.90
10788;DHT22;5446;50.826;4.380;2023-10-19T06:32:03;15.40;99.90
10788;DHT22;5446;50.826;4.380;2023-10-19T06:34:29;15.40;99.90
10788;DHT22;5446;50.826;4.380;2023-10-19T06:36:55;15.30;99.90
10788;DHT22;5446;50.826;4.380;2023-10-19T06:39:21;15.30;99.90
10788;DHT22;5446;50.826;4.380;2023-10-19T06:53:31;15.30;99.90
10788;DHT22;5446;50.826;4.380;2023-10-19T06:55:58;15.40;99.90
10788;DHT22;5446;50.826;4.380;2023-10-19T06:58:24;15.40;99.90
10788;DHT22;5446;50.826;4.380;2023-10-19T07:00:52;15.40;99.90
10788;DHT22;5446;50.826;4.380;2023-10-19T07:03:33;15.40;99.90
10788;DHT22;5446;50.826;4.380;2023-10-19T07:05:59;15.40;99.90
10788;DHT22;5446;50.826;4.380;2023-10-19T07:08:25;15.40;99.90
10788;DHT22;5446;50.826;4.380;2023-10-19T07:10:52;15.40;99.90
10788;DHT22;5446;50.826;4.380;2023-10-19T07:13:19;15.30;99.90
10788;DHT22;5446;50.826;4.380;2023-10-19T07:15:47;15.40;99.90
10788;DHT22;5446;50.826;4.380;2023-10-19T07:18:14;15.30;99.90
10788;DHT22;5446;50.826;4.380;2023-10-19T07:20:40;15.30;99.90
10788;DHT22;5446;50.826;4.380;2023-10-19T07:23:08;15.30;99.90
10788;DHT22;5446;50.826;4.380;2023-10-19T07:25:52;15.20;99.90
10788;DHT22;5446;50.826;4.380;2023-10-19T07:28:20;15.20;99.90
10788;DHT22;5446;50.826;4.380;2023-10-19T07:30:47;15.20;99.90
10788;DHT22;5446;50.826;4.380;2023-10-19T07:33:14;15.20;99.90
10788;DHT22;5446;50.826;4.380;2023-10-19T07:35:44;15.30;99.90
10788;DHT22;5446;50.826;4.380;2023-10-19T07:38:13;15.30;99.90
10788;DHT22;5446;50.826;4.380;2023-10-19T07:40:39;15.30;99.90
10788;DHT22;5446;50.826;4.380;2023-10-19T07:43:05;15.30;99.90
10788;DHT22;5446;50.826;4.380;2023-10-19T07:45:31;15.40;99.90
10788;DHT22;5446;50.826;4.380;2023-10-19T07:47:57;15.40;99.90
10788;DHT22;5446;50.826;4.380;2023-10-19T07:50:32;15.40;99.90
10788;DHT22;5446;50.826;4.380;2023-10-19T07:52:58;15.40;99.90
10788;DHT22;5446;50.826;4.380;2023-10-19T07:55:24;15.40;99.90
10788;DHT22;5446;50.826;4.380;2023-10-19T07:57:50;15.50;99.90
10788;DHT22;5446;50.826;4.380;2023-10-19T08:00:17;15.60;99.90
10788;DHT22;5446;50.826;4.380;2023-10-19T08:02:43;15.70;99.90
10788;DHT22;5446;50.826;4.380;2023-10-19T08:05:14;15.70;99.90
10788;DHT22;5446;50.826;4.380;2023-10-19T08:07:40;15.80;99.90
10788;DHT22;5446;50.826;4.380;2023-10-19T08:10:10;15.90;99.90
10788;DHT22;5446;50.826;4.380;2023-10-19T08:12:41;15.90;99.90
10788;DHT22;5446;50.826;4.380;2023-10-19T08:15:08;15.90;99.90
10788;DHT22;5446;50.826;4.380;2023-10-19T08:17:37;15.90;99.90
10788;DHT22;5446;50.826;4.380;2023-10-19T08:20:05;15.90;99.90
10788;DHT22;5446;50.826;4.380;2023-10-19T08:22:34;16.00;99.90
10788;DHT22;5446;50.826;4.380;2023-10-19T08:25:03;16.00;99.90
10788;DHT22;5446;50.826;4.380;2023-10-19T08:27:42;16.00;99.90
10788;DHT22;5446;50.826;4.380;2023-10-19T08:30:13;16.00;99.90
10788;DHT22;5446;50.826;4.380;2023-10-19T08:32:40;16.00;99.90
10788;DHT22;5446;50.826;4.380;2023-10-19T08:35:10;16.00;99.90
10788;DHT22;5446;50.826;4.380;2023-10-19T08:37:40;15.90;99.90
10788;DHT22;5446;50.826;4.380;2023-10-19T08:40:11;16.00;99.90
10788;DHT22;5446;50.826;4.380;2023-10-19T08:42:41;16.00;99.90
10788;DHT22;5446;50.826;4.380;2023-10-19T08:45:09;16.00;99.90
10788;DHT22;5446;50.826;4.380;2023-10-19T08:47:46;16.00;99.90
10788;DHT22;5446;50.826;4.380;2023-10-19T08:50:14;15.90;99.90
10788;DHT22;5446;50.826;4.380;2023-10-19T08:52:53;15.90;99.90
10788;DHT22;5446;50.826;4.380;2023-10-19T08:55:19;15.90;99.90
10788;DHT22;5446;50.826;4.380;2023-10-19T08:57:48;15.90;99.90
10788;DHT22;5446;50.826;4.380;2023-10-19T09:00:15;16.00;99.90
10788;DHT22;5446;50.826;4.380;2023-10-19T09:02:47;16.10;99.90
10788;DHT22;5446;50.826;4.380;2023-10-19T09:05:13;16.20;99.90
10788;DHT22;5446;50.826;4.380;2023-10-19T09:07:49;16.20;99.90
10788;DHT22;5446;50.826;4.380;2023-10-19T09:10:25;16.30;99.90
10788;DHT22;5446;50.826;4.380;2023-10-19T09:13:05;16.40;99.90
10788;DHT22;5446;50.826;4.380;2023-10-19T09:15:35;16.40;99.90
10788;DHT22;5446;50.826;4.380;2023-10-19T09:18:27;16.50;99.90
10788;DHT22;5446;50.826;4.380;2023-10-19T09:20:54;16.50;99.90
10788;DHT22;5446;50.826;4.380;2023-10-19T09:23:27;16.50;99.90
10788;DHT22;5446;50.826;4.380;2023-10-19T09:25:57;16.60;99.90
10788;DHT22;5446;50.826;4.380;2023-10-19T09:28:23;16.60;99.90
10788;DHT22;5446;50.826;4.380;2023-10-19T09:30:50;16.70;99.90
10788;DHT22;5446;50.826;4.380;2023-10-19T09:33:17;16.70;99.90
10788;DHT22;5446;50.826;4.380;2023-10-19T09:35:50;16.80;99.90
10788;DHT22;5446;50.826;4.380;2023-10-19T09:38:20;16.80;99.90
10788;DHT22;5446;50.826;4.380;2023-10-19T09:40:51;16.90;99.90
10788;DHT22;5446;50.826;4.380;2023-10-19T09:43:34;17.00;99.90
10788;DHT22;5446;50.826;4.380;2023-10-19T09:46:08;17.00;99.90
10788;DHT22;5446;50.826;4.380;2023-10-19T09:48:40;17.00;99.90
10788;DHT22;5446;50.826;4.380;2023-10-19T09:51:10;17.00;99.90
10788;DHT22;5446;50.826;4.380;2023-10-19T09:53:37;17.00;99.90
10788;DHT22;5446;50.826;4.380;2023-10-19T09:56:05;17.00;99.90
10788;DHT22;5446;50.826;4.380;2023-10-19T09:58:39;17.10;99.90
10788;DHT22;5446;50.826;4.380;2023-10-19T10:01:06;17.20;99.90
10788;DHT22;5446;50.826;4.380;2023-10-19T10:03:48;17.30;99.90
10788;DHT22;5446;50.826;4.380;2023-10-19T10:06:16;17.50;99.90
10788;DHT22;5446;50.826;4.380;2023-10-19T10:08:46;17.60;99.90
10788;DHT22;5446;50.826;4.380;2023-10-19T10:11:18;17.70;99.90
10788;DHT22;5446;50.826;4.380;2023-10-19T10:13:45;17.80;99.90
10788;DHT22;5446;50.826;4.380;2023-10-19T10:16:15;17.80;99.90
10788;DHT22;5446;50.826;4.380;2023-10-19T10:18:42;17.90;99.90
10788;DHT22;5446;50.826;4.380;2023-10-19T10:21:18;17.90;99.90
10788;DHT22;5446;50.826;4.380;2023-10-19T10:23:59;17.90;99.90
10788;DHT22;5446;50.826;4.380;2023-10-19T10:26:27;17.90;99.90
10788;DHT22;5446;50.826;4.380;2023-10-19T10:29:17;17.90;99.90
10788;DHT22;5446;50.826;4.380;2023-10-19T10:31:48;18.00;99.90
10788;DHT22;5446;50.826;4.380;2023-10-19T10:37:09;18.10;99.90
10788;DHT22;5446;50.826;4.380;2023-10-19T10:39:36;18.10;99.90
10788;DHT22;5446;50.826;4.380;2023-10-19T10:42:07;18.10;99.90
10788;DHT22;5446;50.826;4.380;2023-10-19T10:44:39;18.00;99.90
10788;DHT22;5446;50.826;4.380;2023-10-19T10:47:23;18.00;99.90
10788;DHT22;5446;50.826;4.380;2023-10-19T10:50:00;18.00;99.90
10788;DHT22;5446;50.826;4.380;2023-10-19T10:52:32;17.90;99.90
10788;DHT22;5446;50.826;4.380;2023-10-19T10:55:14;17.80;99.90
10788;DHT22;5446;50.826;4.380;2023-10-19T10:57:43;17.80;99.90
10788;DHT22;5446;50.826;4.380;2023-10-19T11:00:10;17.80;99.90
10788;DHT22;5446;50.826;4.380;2023-10-19T11:02:42;17.70;99.90
10788;DHT22;5446;50.826;4.380;2023-10-19T11:05:17;17.70;99.90
10788;DHT22;5446;50.826;4.380;2023-10-19T11:08:12;17.70;99.90
10788;DHT22;5446;50.826;4.380;2023-10-19T11:10:47;17.70;99.90
10788;DHT22;5446;50.826;4.380;2023-10-19T11:13:15;17.60;99.90
10788;DHT22;5446;50.826;4.380;2023-10-19T11:15:54;17.50;99.90
10788;DHT22;5446;50.826;4.380;2023-10-19T11:18:48;17.60;99.90
10788;DHT22;5446;50.826;4.380;2023-10-19T11:21:15;17.50;99.90
10788;DHT22;5446;50.826;4.380;2023-10-19T11:23:44;17.60;99.90
10788;DHT22;5446;50.826;4.380;2023-10-19T11:26:21;17.70;99.90
10788;DHT22;5446;50.826;4.380;2023-10-19T11:28:47;17.60;99.90
10788;DHT22;5446;50.826;4.380;2023-10-19T11:31:20;17.80;99.90
10788;DHT22;5446;50.826;4.380;2023-10-19T11:33:52;17.80;99.90
10788;DHT22;5446;50.826;4.380;2023-10-19T11:36:19;17.80;99.90
10788;DHT22;5446;50.826;4.380;2023-10-19T11:38:48;17.80;99.90
10788;DHT22;5446;50.826;4.380;2023-10-19T11:41:16;17.60;99.90
10788;DHT22;5446;50.826;4.380;2023-10-19T11:43:43;17.60;99.90
10788;DHT22;5446;50.826;4.380;2023-10-19T11:46:10;17.70;99.90
10788;DHT22;5446;50.826;4.380;2023-10-19T11:48:43;17.70;99.90
10788;DHT22;5446;50.826;4.380;2023-10-19T11:51:10;17.70;99.90
10788;DHT22;5446;50.826;4.380;2023-10-19T11:53:41;17.80;99.90
10788;DHT22;5446;50.826;4.380;2023-10-19T11:56:09;17.80;99.90
10788;DHT22;5446;50.826;4.380;2023-10-19T11:58:36;17.90;99.90
10788;DHT22;5446;50.826;4.380;2023-10-19T12:01:05;17.90;99.90
10788;DHT22;5446;50.826;4.380;2023-10-19T12:03:34;17.80;99.90
10788;DHT22;5446;50.826;4.380;2023-10-19T12:06:05;17.70;99.90
10788;DHT22;5446;50.826;4.380;2023-10-19T12:08:34;17.70;99.90
10788;DHT22;5446;50.826;4.380;2023-10-19T12:11:02;17.70;99.90
10788;DHT22;5446;50.826;4.380;2023-10-19T12:13:32;17.70;99.90
10788;DHT22;5446;50.826;4.380;2023-10-19T12:15:58;17.70;99.90
10788;DHT22;5446;50.826;4.380;2023-10-19T12:18:24;17.70;99.90
10788;DHT22;5446;50.826;4.380;2023-10-19T12:20:54;17.60;99.90
10788;DHT22;5446;50.826;4.380;2023-10-19T12:23:25;17.50;99.90
10788;DHT22;5446;50.826;4.380;2023-10-19T12:25:51;17.50;99.90
10788;DHT22;5446;50.826;4.380;2023-10-19T12:28:18;17.50;99.90
10788;DHT22;5446;50.826;4.380;2023-10-19T12:30:43;17.40;99.90
10788;DHT22;5446;50.826;4.380;2023-10-19T12:33:10;17.40;99.90
10788;DHT22;5446;50.826;4.380;2023-10-19T12:35:42;17.40;99.90
10788;DHT22;5446;50.826;4.380;2023-10-19T12:38:18;17.50;99.90
10788;DHT22;5446;50.826;4.380;2023-10-19T12:40:46;17.70;99.90
10788;DHT22;5446;50.826;4.380;2023-10-19T12:43:14;17.90;99.90
10788;DHT22;5446;50.826;4.380;2023-10-19T12:45:40;18.10;99.90
10788;DHT22;5446;50.826;4.380;2023-10-19T12:48:07;18.40;99.90
10788;DHT22;5446;50.826;4.380;2023-10-19T12:50:36;18.40;99.90
10788;DHT22;5446;50.826;4.380;2023-10-19T12:53:03;18.50;99.90
10788;DHT22;5446;50.826;4.380;2023-10-19T12:55:29;18.50;99.90
10788;DHT22;5446;50.826;4.380;2023-10-19T12:57:57;18.40;99.90
10788;DHT22;5446;50.826;4.380;2023-10-19T13:00:23;18.50;99.90
10788;DHT22;5446;50.826;4.380;2023-10-19T13:02:55;18.60;99.90
10788;DHT22;5446;50.826;4.380;2023-10-19T13:05:32;18.60;99.90
10788;DHT22;5446;50.826;4.380;2023-10-19T13:07:59;18.60;99.90
10788;DHT22;5446;50.826;4.380;2023-10-19T13:10:29;18.60;99.90
10788;DHT22;5446;50.826;4.380;2023-10-19T13:13:08;18.70;99.90
10788;DHT22;5446;50.826;4.380;2023-10-19T13:15:37;18.60;99.90
10788;DHT22;5446;50.826;4.380;2023-10-19T13:18:05;18.70;99.90
10788;DHT22;5446;50.826;4.380;2023-10-19T13:20:39;18.60;99.90
10788;DHT22;5446;50.826;4.380;2023-10-19T13:23:09;18.50;99.90
10788;DHT22;5446;50.826;4.380;2023-10-19T13:25:42;18.40;99.90
10788;DHT22;5446;50.826;4.380;2023-10-19T13:28:13;18.30;99.90
10788;DHT22;5446;50.826;4.380;2023-10-19T13:30:46;18.30;99.90
10788;DHT22;5446;50.826;4.380;2023-10-19T13:33:13;18.30;99.90
10788;DHT22;5446;50.826;4.380;2023-10-19T13:35:41;18.30;99.90
10788;DHT22;5446;50.826;4.380;2023-10-19T13:38:08;18.20;99.90
10788;DHT22;5446;50.826;4.380;2023-10-19T13:40:38;18.30;99.90
10788;DHT22;5446;50.826;4.380;2023-10-19T13:43:05;18.40;99.90
10788;DHT22;5446;50.826;4.380;2023-10-19T13:45:32;18.40;99.90
10788;DHT22;5446;50.826;4.380;2023-10-19T13:48:05;18.40;99.90
10788;DHT22;5446;50.826;4.380;2023-10-19T13:50:32;18.40;99.90
10788;DHT22;5446;50.826;4.380;2023-10-19T13:52:58;18.30;99.90
10788;DHT22;5446;50.826;4.380;2023-10-19T13:55:26;18.40;99.90
10788;DHT22;5446;50.826;4.380;2023-10-19T13:57:52;18.40;99.90
10788;DHT22;5446;50.826;4.380;2023-10-19T14:00:19;18.40;99.90
10788;DHT22;5446;50.826;4.380;2023-10-19T14:02:52;18.30;99.90
10788;DHT22;5446;50.826;4.380;2023-10-19T14:05:19;18.40;99.90
10788;DHT22;5446;50.826;4.380;2023-10-19T14:07:48;18.30;99.90
10788;DHT22;5446;50.826;4.380;2023-10-19T14:10:14;18.30;99.90
10788;DHT22;5446;50.826;4.380;2023-10-19T14:12:41;18.30;99.90
10788;DHT22;5446;50.826;4.380;2023-10-19T14:15:14;18.30;99.90
10788;DHT22;5446;50.826;4.380;2023-10-19T14:17:44;18.30;99.90
10788;DHT22;5446;50.826;4.380;2023-10-19T14:20:12;18.30;99.90
10788;DHT22;5446;50.826;4.380;2023-10-19T14:22:42;18.30;99.90
10788;DHT22;5446;50.826;4.380;2023-10-19T14:25:09;18.30;99.90
10788;DHT22;5446;50.826;4.380;2023-10-19T14:27:45;18.30;99.90
10788;DHT22;5446;50.826;4.380;2023-10-19T14:30:16;18.30;99.90
10788;DHT22;5446;50.826;4.380;2023-10-19T14:32:46;18.30;99.90
10788;DHT22;5446;50.826;4.380;2023-10-19T14:35:14;18.20;99.90
10788;DHT22;5446;50.826;4.380;2023-10-19T14:37:45;18.20;99.90
10788;DHT22;5446;50.826;4.380;2023-10-19T14:40:13;18.30;99.90
10788;DHT22;5446;50.826;4.380;2023-10-19T14:42:40;18.30;99.90
10788;DHT22;5446;50.826;4.380;2023-10-19T14:45:11;18.30;99.90
10788;DHT22;5446;50.826;4.380;2023-10-19T14:47:40;18.30;99.90
10788;DHT22;5446;50.826;4.380;2023-10-19T14:50:15;18.30;99.90
10788;DHT22;5446;50.826;4.380;2023-10-19T14:52:45;18.30;99.90
10788;DHT22;5446;50.826;4.380;2023-10-19T14:55:12;18.40;99.90
10788;DHT22;5446;50.826;4.380;2023-10-19T14:57:41;18.40;99.90
10788;DHT22;5446;50.826;4.380;2023-10-19T15:00:09;18.40;99.90
10788;DHT22;5446;50.826;4.380;2023-10-19T15:02:38;18.50;99.90
10788;DHT22;5446;50.826;4.380;2023-10-19T15:05:05;18.40;99.90
10788;DHT22;5446;50.826;4.380;2023-10-19T15:07:31;18.40;99.90
10788;DHT22;5446;50.826;4.380;2023-10-19T15:09:57;18.40;99.90
10788;DHT22;5446;50.826;4.380;2023-10-19T15:12:22;18.30;99.90
10788;DHT22;5446;50.826;4.380;2023-10-19T15:14:49;18.20;99.90
10788;DHT22;5446;50.826;4.380;2023-10-19T15:17:15;18.20;99.90
10788;DHT22;5446;50.826;4.380;2023-10-19T15:19:42;18.20;99.90
10788;DHT22;5446;50.826;4.380;2023-10-19T15:22:08;18.20;99.90
10788;DHT22;5446;50.826;4.380;2023-10-19T15:24:34;18.20;99.90
10788;DHT22;5446;50.826;4.380;2023-10-19T15:27:01;18.20;99.90
10788;DHT22;5446;50.826;4.380;2023-10-19T15:29:28;18.20;99.90
10788;DHT22;5446;50.826;4.380;2023-10-19T15:31:54;18.20;99.90
10788;DHT22;5446;50.826;4.380;2023-10-19T15:34:21;18.10;99.90
10788;DHT22;5446;50.826;4.380;2023-10-19T15:36:47;18.10;99.90
10788;DHT22;5446;50.826;4.380;2023-10-19T15:39:12;18.10;99.90
10788;DHT22;5446;50.826;4.380;2023-10-19T15:41:38;18.10;99.90
10788;DHT22;5446;50.826;4.380;2023-10-19T15:44:04;18.00;99.90
10788;DHT22;5446;50.826;4.380;2023-10-19T15:46:31;18.00;99.90
10788;DHT22;5446;50.826;4.380;2023-10-19T15:48:59;18.00;99.90
10788;DHT22;5446;50.826;4.380;2023-10-19T15:51:25;18.00;99.90
10788;DHT22;5446;50.826;4.380;2023-10-19T15:53:50;17.90;99.90
10788;DHT22;5446;50.826;4.380;2023-10-19T15:56:16;17.90;99.90
10788;DHT22;5446;50.826;4.380;2023-10-19T15:58:44;17.90;99.90
10788;DHT22;5446;50.826;4.380;2023-10-19T16:01:09;17.80;99.90
10788;DHT22;5446;50.826;4.380;2023-10-19T16:03:36;17.80;99.90
10788;DHT22;5446;50.826;4.380;2023-10-19T16:06:03;17.80;99.90
10788;DHT22;5446;50.826;4.380;2023-10-19T16:08:31;17.80;99.90
10788;DHT22;5446;50.826;4.380;2023-10-19T16:10:56;17.70;99.90
10788;DHT22;5446;50.826;4.380;2023-10-19T16:13:22;17.70;99.90
10788;DHT22;5446;50.826;4.380;2023-10-19T16:15:48;17.60;99.90